createdAt,value
2022-12-14T00:01:37.847Z,-7.61
2022-12-14T00:04:34.709Z,-7.61
2022-12-14T00:07:31.582Z,-7.56
2022-12-14T00:10:28.676Z,-7.51
2022-12-14T00:13:25.506Z,-7.52
2022-12-14T00:16:24.018Z,-7.51
2022-12-14T00:19:20.849Z,-7.52
2022-12-14T00:22:17.661Z,-7.46
2022-12-14T00:25:14.671Z,-7.46
2022-12-14T00:28:11.661Z,-7.43
2022-12-14T00:31:08.810Z,-7.41
2022-12-14T00:34:05.682Z,-7.41
2022-12-14T00:37:02.592Z,-7.39
2022-12-14T00:39:59.413Z,-7.42
2022-12-14T00:42:56.253Z,-7.40
2022-12-14T00:45:53.486Z,-7.38
2022-12-14T00:48:50.407Z,-7.35
2022-12-14T00:51:47.253Z,-7.29
2022-12-14T00:54:44.633Z,-7.32
2022-12-14T00:57:41.507Z,-7.27
2022-12-14T01:00:38.810Z,-7.28
2022-12-14T01:03:35.906Z,-7.21
2022-12-14T01:06:32.797Z,-7.23
2022-12-14T01:09:29.599Z,-7.21
2022-12-14T01:12:26.515Z,-7.19
2022-12-14T01:15:23.463Z,-7.20
2022-12-14T01:18:20.318Z,-7.13
2022-12-14T01:21:24.013Z,-7.20
2022-12-14T01:24:20.847Z,-7.18
2022-12-14T01:27:17.839Z,-7.22
2022-12-14T01:30:14.844Z,-7.16
2022-12-14T01:33:11.736Z,-7.12
2022-12-14T01:36:16.449Z,-7.07
2022-12-14T01:39:15.953Z,-7.09
2022-12-14T01:42:14.833Z,-7.19
2022-12-14T01:45:21.823Z,-7.14
2022-12-14T01:48:18.869Z,-7.22
2022-12-14T01:51:15.843Z,-7.22
2022-12-14T01:54:15.088Z,-7.19
2022-12-14T01:57:13.805Z,-7.14
2022-12-14T02:00:16.884Z,-7.11
2022-12-14T02:03:18.798Z,-7.12
2022-12-14T02:06:33.022Z,-7.08
2022-12-14T02:09:35.895Z,-7.04
2022-12-14T02:12:44.177Z,-7.05
2022-12-14T02:15:41.808Z,-7.09
2022-12-14T02:18:38.737Z,-7.10
2022-12-14T02:21:56.577Z,-7.11
2022-12-14T02:25:33.982Z,-7.01
2022-12-14T02:29:17.342Z,-6.98
2022-12-14T02:32:30.487Z,-7.00
2022-12-14T02:35:57.032Z,-7.01
2022-12-14T02:39:09.900Z,-6.93
2022-12-14T02:42:40.190Z,-6.93
2022-12-14T02:46:03.236Z,-6.86
2022-12-14T02:49:35.918Z,-6.87
2022-12-14T02:53:07.891Z,-7.00
2022-12-14T02:56:13.230Z,-7.04
2022-12-14T02:59:11.752Z,-6.98
2022-12-14T03:02:10.991Z,-6.94
2022-12-14T03:05:09.117Z,-6.93
2022-12-14T03:08:14.257Z,-6.94
2022-12-14T03:11:19.412Z,-6.88
2022-12-14T03:14:56.028Z,-6.91
2022-12-14T03:17:58.677Z,-6.91
2022-12-14T03:20:59.638Z,-7.01
2022-12-14T03:23:58.967Z,-7.01
2022-12-14T03:27:22.163Z,-6.95
2022-12-14T03:30:43.923Z,-6.94
2022-12-14T03:33:38.108Z,-6.91
2022-12-14T03:37:09.596Z,-6.94
2022-12-14T03:40:14.113Z,-7.01
2022-12-14T03:43:25.469Z,-6.98
2022-12-14T03:46:51.829Z,-6.98
2022-12-14T03:50:08.965Z,-6.93
2022-12-14T03:53:40.215Z,-6.88
2022-12-14T03:57:01.016Z,-6.88
2022-12-14T04:00:10.815Z,-6.99
2022-12-14T04:03:27.552Z,-6.96
2022-12-14T04:06:30.126Z,-6.97
2022-12-14T04:09:41.094Z,-6.94
2022-12-14T04:12:59.583Z,-6.99
2022-12-14T04:16:19.268Z,-7.01
2022-12-14T04:19:44.301Z,-6.87
2022-12-14T04:22:55.443Z,-6.91
2022-12-14T04:26:05.415Z,-6.93
2022-12-14T04:29:31.414Z,-6.95
2022-12-14T04:32:36.124Z,-6.90
2022-12-14T04:35:39.756Z,-6.85
2022-12-14T04:38:39.394Z,-6.76
2022-12-14T04:41:42.872Z,-6.84
2022-12-14T04:44:45.164Z,-6.85
2022-12-14T04:47:52.333Z,-6.84
2022-12-14T04:51:25.234Z,-6.84
2022-12-14T04:54:37.509Z,-6.85
2022-12-14T04:58:05.685Z,-6.88
2022-12-14T05:01:35.503Z,-6.80
2022-12-14T05:04:54.954Z,-6.82
2022-12-14T05:08:10.911Z,-6.84
2022-12-14T05:11:53.495Z,-6.82
2022-12-14T05:15:21.255Z,-6.78
2022-12-14T05:18:18.563Z,-6.81
2022-12-14T05:21:34.235Z,-6.81
2022-12-14T05:24:31.637Z,-6.81
2022-12-14T05:27:28.499Z,-6.69
2022-12-14T05:30:25.450Z,-6.77
2022-12-14T05:33:22.316Z,-6.76
2022-12-14T05:36:19.721Z,-6.70
2022-12-14T05:39:17.278Z,-6.73
2022-12-14T05:42:14.147Z,-6.69
2022-12-14T05:45:14.827Z,-6.72
2022-12-14T05:48:11.744Z,-6.70
2022-12-14T05:51:12.201Z,-6.71
2022-12-14T05:54:09.125Z,-6.69
2022-12-14T05:57:06.935Z,-6.64
2022-12-14T06:00:05.082Z,-6.61
2022-12-14T06:03:01.991Z,-6.61
2022-12-14T06:06:08.471Z,-6.64
2022-12-14T06:09:15.704Z,-6.59
2022-12-14T06:12:12.711Z,-6.64
2022-12-14T06:15:10.119Z,-6.62
2022-12-14T06:18:06.956Z,-6.64
2022-12-14T06:21:03.933Z,-6.58
2022-12-14T06:24:01.981Z,-6.54
2022-12-14T06:26:58.964Z,-6.53
2022-12-14T06:29:55.786Z,-6.51
2022-12-14T06:32:52.637Z,-6.48
2022-12-14T06:35:50.043Z,-6.51
2022-12-14T06:38:47.246Z,-6.48
2022-12-14T06:41:48.582Z,-6.39
2022-12-14T06:44:45.428Z,-6.40
2022-12-14T06:47:42.320Z,-6.35
2022-12-14T06:50:39.157Z,-6.35
2022-12-14T06:53:36.524Z,-6.32
2022-12-14T06:56:33.462Z,-6.34
2022-12-14T06:59:30.361Z,-6.32
2022-12-14T07:02:27.304Z,-6.27
2022-12-14T07:05:24.296Z,-6.25
2022-12-14T07:08:21.159Z,-6.27
2022-12-14T07:11:18.113Z,-6.24
2022-12-14T07:14:17.867Z,-6.16
2022-12-14T07:17:14.718Z,-6.18
2022-12-14T07:20:12.001Z,-6.11
2022-12-14T07:23:08.923Z,-6.10
2022-12-14T07:26:18.739Z,-6.04
2022-12-14T07:29:16.915Z,-6.00
2022-12-14T07:32:13.786Z,-5.91
2022-12-14T07:35:16.363Z,-5.91
2022-12-14T07:38:13.652Z,-5.90
2022-12-14T07:41:23.812Z,-5.85
2022-12-14T07:44:20.923Z,-5.81
2022-12-14T07:47:17.771Z,-5.77
2022-12-14T07:50:14.718Z,-5.66
2022-12-14T07:53:11.597Z,-5.56
2022-12-14T07:56:21.605Z,-5.55
2022-12-14T07:59:19.184Z,-5.53
2022-12-14T08:02:16.452Z,-5.42
2022-12-14T08:05:13.555Z,-5.43
2022-12-14T08:08:10.378Z,-5.37
2022-12-14T08:11:08.115Z,-5.37
2022-12-14T08:14:10.800Z,-5.27
2022-12-14T08:17:08.043Z,-5.32
2022-12-14T08:20:05.717Z,-5.26
2022-12-14T08:23:02.642Z,-5.12
2022-12-14T08:26:00.909Z,-5.11
2022-12-14T08:28:57.781Z,-5.08
2022-12-14T08:31:58.018Z,-5.02
2022-12-14T08:34:54.852Z,-4.99
2022-12-14T08:37:52.744Z,-4.97
2022-12-14T08:40:49.568Z,-4.96
2022-12-14T08:43:54.078Z,-4.87
2022-12-14T08:46:51.012Z,-4.78
2022-12-14T08:49:47.863Z,-4.96
2022-12-14T08:52:48.615Z,-4.85
2022-12-14T08:55:45.815Z,-5.06
2022-12-14T08:58:43.317Z,-4.90
2022-12-14T09:01:40.280Z,-4.84
2022-12-14T09:04:37.230Z,-4.83
2022-12-14T09:07:34.210Z,-4.80
2022-12-14T09:10:31.435Z,-4.75
2022-12-14T09:13:29.330Z,-4.64
2022-12-14T09:16:26.896Z,-4.63
2022-12-14T09:19:23.796Z,-4.51
2022-12-14T09:22:21.674Z,-4.55
2022-12-14T09:25:18.723Z,-4.50
2022-12-14T09:28:15.555Z,-4.48
2022-12-14T09:31:14.808Z,-4.44
2022-12-14T09:34:11.717Z,-4.48
2022-12-14T09:37:08.588Z,-4.38
2022-12-14T09:40:06.959Z,-4.37
2022-12-14T09:43:10.453Z,-4.24
2022-12-14T09:46:42.958Z,-4.20
2022-12-14T09:49:57.134Z,-4.18
2022-12-14T09:52:59.139Z,-4.17
2022-12-14T09:55:57.822Z,-4.18
2022-12-14T09:59:01.920Z,-4.18
2022-12-14T10:02:31.372Z,-4.17
2022-12-14T10:06:16.306Z,-4.14
2022-12-14T10:09:53.907Z,-4.11
2022-12-14T10:13:39.855Z,-4.07
2022-12-14T10:17:05.931Z,-4.05
2022-12-14T10:20:27.459Z,-3.95
2022-12-14T10:23:26.532Z,-3.91
2022-12-14T10:26:41.065Z,-3.90
2022-12-14T10:29:48.885Z,-3.96
2022-12-14T10:33:13.838Z,-3.87
2022-12-14T10:36:51.795Z,-3.79
2022-12-14T10:40:17.612Z,-3.62
2022-12-14T10:43:47.189Z,-3.51
2022-12-14T10:47:12.456Z,-3.48
2022-12-14T10:50:33.884Z,-3.29
2022-12-14T10:54:19.642Z,-3.38
2022-12-14T10:57:26.825Z,-3.45
2022-12-14T11:00:24.056Z,-3.33
2022-12-14T11:03:22.165Z,-3.31
2022-12-14T11:06:20.224Z,-3.24
2022-12-14T11:09:22.565Z,-3.33
2022-12-14T11:12:27.983Z,-3.36
2022-12-14T11:15:40.269Z,-3.30
2022-12-14T11:18:37.554Z,-3.21
2022-12-14T11:21:38.823Z,-3.28
2022-12-14T11:24:46.515Z,-3.24
2022-12-14T11:27:43.452Z,-3.14
2022-12-14T11:30:40.648Z,-3.04
2022-12-14T11:33:56.678Z,-2.93
2022-12-14T11:36:53.666Z,-3.03
2022-12-14T11:39:55.012Z,-2.93
2022-12-14T11:43:01.572Z,-2.79
2022-12-14T11:45:59.356Z,-2.79
2022-12-14T11:48:56.259Z,-2.80
2022-12-14T11:52:02.550Z,-2.79
2022-12-14T11:55:14.704Z,-2.89
2022-12-14T11:58:33.701Z,-2.72
2022-12-14T12:01:31.610Z,-2.58
2022-12-14T12:04:28.640Z,-2.45
2022-12-14T12:07:43.372Z,-2.59
2022-12-14T12:10:45.342Z,-2.57
2022-12-14T12:13:52.648Z,-2.55
2022-12-14T12:16:53.237Z,-2.73
2022-12-14T12:19:51.585Z,-2.70
2022-12-14T12:22:53.483Z,-2.72
2022-12-14T12:25:53.290Z,-2.67
2022-12-14T12:29:43.501Z,-2.81
2022-12-14T12:32:50.249Z,-2.76
2022-12-14T12:35:56.139Z,-2.75
2022-12-14T12:39:14.888Z,-2.62
2022-12-14T12:42:40.347Z,-2.62
2022-12-14T12:45:45.667Z,-2.55
2022-12-14T12:49:04.319Z,-2.37
2022-12-14T12:52:15.747Z,-2.40
2022-12-14T12:55:19.240Z,-2.40
2022-12-14T12:58:36.795Z,-2.54
2022-12-14T13:01:39.402Z,-2.50
2022-12-14T13:04:40.592Z,-2.41
2022-12-14T13:07:43.795Z,-2.48
2022-12-14T13:11:02.379Z,-2.26
2022-12-14T13:14:35.183Z,-2.20
2022-12-14T13:18:33.892Z,-2.33
2022-12-14T13:21:39.428Z,-2.44
2022-12-14T13:24:36.637Z,-2.49
2022-12-14T13:28:23.688Z,-2.67
2022-12-14T13:31:47.279Z,-2.63
2022-12-14T13:34:55.941Z,-2.77
2022-12-14T13:38:32.953Z,-2.79
2022-12-14T13:42:01.153Z,-2.80
2022-12-14T13:45:04.451Z,-2.81
2022-12-14T13:48:06.511Z,-2.84
2022-12-14T13:51:07.434Z,-2.74
2022-12-14T13:54:17.488Z,-2.73
2022-12-14T13:57:24.426Z,-2.71
2022-12-14T14:00:46.649Z,-2.84
2022-12-14T14:03:55.287Z,-2.95
2022-12-14T14:06:55.583Z,-2.90
2022-12-14T14:09:55.398Z,-3.08
2022-12-14T14:12:52.321Z,-3.02
2022-12-14T14:16:27.442Z,-3.08
2022-12-14T14:19:24.459Z,-3.17
2022-12-14T14:22:27.490Z,-3.28
2022-12-14T14:25:33.656Z,-3.28
2022-12-14T14:28:30.925Z,-3.46
2022-12-14T14:32:03.691Z,-3.45
2022-12-14T14:35:07.723Z,-3.46
2022-12-14T14:38:31.088Z,-3.22
2022-12-14T14:41:44.061Z,-3.47
2022-12-14T14:44:53.680Z,-3.43
2022-12-14T14:47:57.159Z,-3.47
2022-12-14T14:51:16.339Z,-3.44
2022-12-14T14:55:03.686Z,-3.50
2022-12-14T14:58:22.278Z,-3.46
2022-12-14T15:01:28.280Z,-3.57
2022-12-14T15:04:51.620Z,-3.58
2022-12-14T15:07:49.117Z,-3.38
2022-12-14T15:10:46.815Z,-3.52
2022-12-14T15:13:58.341Z,-3.60
2022-12-14T15:16:55.331Z,-3.46
2022-12-14T15:20:01.030Z,-3.54
2022-12-14T15:22:58.389Z,-3.63
2022-12-14T15:25:59.151Z,-3.64
2022-12-14T15:29:00.472Z,-3.67
2022-12-14T15:32:00.564Z,-3.65
2022-12-14T15:35:01.005Z,-3.67
2022-12-14T15:38:06.441Z,-3.63
2022-12-14T15:41:12.956Z,-3.74
2022-12-14T15:44:22.564Z,-3.74
2022-12-14T15:47:30.881Z,-3.73
2022-12-14T15:50:32.632Z,-3.79
2022-12-14T15:53:50.349Z,-3.89
2022-12-14T15:56:57.519Z,-3.83
2022-12-14T15:59:57.623Z,-3.77
2022-12-14T16:02:54.910Z,-3.85
2022-12-14T16:05:53.090Z,-3.86
2022-12-14T16:09:28.165Z,-3.83
2022-12-14T16:13:01.550Z,-3.88
2022-12-14T16:16:05.466Z,-3.94
2022-12-14T16:19:26.062Z,-3.93
2022-12-14T16:22:29.436Z,-3.93
2022-12-14T16:25:26.496Z,-3.89
2022-12-14T16:28:36.365Z,-3.96
2022-12-14T16:31:34.068Z,-3.99
2022-12-14T16:34:31.505Z,-4.05
2022-12-14T16:37:33.372Z,-3.99
2022-12-14T16:40:36.377Z,-3.96
2022-12-14T16:43:37.067Z,-3.96
2022-12-14T16:46:34.124Z,-3.93
2022-12-14T16:49:50.691Z,-4.02
2022-12-14T16:52:47.748Z,-4.14
2022-12-14T16:56:03.150Z,-4.07
2022-12-14T16:59:20.328Z,-4.05
2022-12-14T17:02:41.393Z,-4.13
2022-12-14T17:05:41.423Z,-4.14
2022-12-14T17:08:38.371Z,-4.06
2022-12-14T17:11:35.366Z,-4.08
2022-12-14T17:14:32.311Z,-4.08
2022-12-14T17:17:35.692Z,-4.07
2022-12-14T17:20:39.667Z,-4.08
2022-12-14T17:23:43.250Z,-4.13
2022-12-14T17:26:40.306Z,-4.06
2022-12-14T17:29:37.204Z,-4.10
2022-12-14T17:32:34.674Z,-3.87
2022-12-14T17:35:32.856Z,-4.02
2022-12-14T17:38:31.414Z,-4.15
2022-12-14T17:41:28.427Z,-4.13
2022-12-14T17:44:25.290Z,-4.02
2022-12-14T17:47:22.799Z,-4.10
2022-12-14T17:50:20.088Z,-4.17
2022-12-14T17:53:25.098Z,-4.12
2022-12-14T17:56:22.522Z,-4.19
2022-12-14T17:59:20.042Z,-4.17
2022-12-14T18:02:31.460Z,-4.25
2022-12-14T18:05:31.573Z,-4.20
2022-12-14T18:08:28.553Z,-4.52
2022-12-14T18:11:26.992Z,-4.47
2022-12-14T18:14:23.836Z,-4.48
2022-12-14T18:17:20.717Z,-4.49
2022-12-14T18:20:19.610Z,-4.46
2022-12-14T18:23:17.975Z,-4.78
2022-12-14T18:26:20.868Z,-4.73
2022-12-14T18:29:18.257Z,-4.79
2022-12-14T18:32:15.436Z,-4.72
2022-12-14T18:35:24.983Z,-4.56
2022-12-14T18:38:22.065Z,-4.72
2022-12-14T18:41:23.390Z,-4.59
2022-12-14T18:44:20.311Z,-4.72
2022-12-14T18:47:40.697Z,-4.78
2022-12-14T18:50:37.189Z,-4.73
2022-12-14T18:53:36.513Z,-4.53
2022-12-14T18:56:33.500Z,-4.64
2022-12-14T18:59:30.996Z,-4.74
2022-12-14T19:02:28.835Z,-4.77
2022-12-14T19:05:26.685Z,-4.73
2022-12-14T19:08:23.553Z,-4.85
2022-12-14T19:11:34.306Z,-4.76
2022-12-14T19:14:31.136Z,-4.92
2022-12-14T19:17:28.034Z,-4.94
2022-12-14T19:20:26.784Z,-4.77
2022-12-14T19:23:23.659Z,-4.78
2022-12-14T19:26:21.105Z,-4.76
2022-12-14T19:29:18.003Z,-4.81
2022-12-14T19:32:14.933Z,-4.82
2022-12-14T19:35:11.814Z,-4.84
2022-12-14T19:38:18.080Z,-4.77
2022-12-14T19:41:15.716Z,-4.78
2022-12-14T19:44:12.603Z,-4.79
2022-12-14T19:47:09.707Z,-4.85
2022-12-14T19:50:07.979Z,-4.93
2022-12-14T19:53:04.970Z,-4.82
2022-12-14T19:56:01.929Z,-4.81
2022-12-14T19:59:03.593Z,-4.82
2022-12-14T20:02:02.257Z,-4.79
2022-12-14T20:04:59.219Z,-4.75
2022-12-14T20:07:56.150Z,-4.75
2022-12-14T20:10:53.185Z,-4.77
2022-12-14T20:13:56.745Z,-4.86
2022-12-14T20:16:56.091Z,-4.69
2022-12-14T20:19:53.270Z,-4.64
2022-12-14T20:22:50.317Z,-4.64
2022-12-14T20:25:48.361Z,-4.64
2022-12-14T20:28:50.307Z,-4.72
2022-12-14T20:31:47.287Z,-4.64
2022-12-14T20:34:44.319Z,-4.72
2022-12-14T20:37:41.832Z,-4.71
2022-12-14T20:40:39.475Z,-4.81
2022-12-14T20:43:39.268Z,-4.83
2022-12-14T20:46:39.066Z,-4.84
2022-12-14T20:49:38.745Z,-4.90
2022-12-14T20:52:35.623Z,-4.98
2022-12-14T20:55:34.316Z,-4.90
2022-12-14T20:58:31.207Z,-4.89
2022-12-14T21:01:28.266Z,-4.89
2022-12-14T21:04:25.297Z,-4.95
2022-12-14T21:07:26.081Z,-4.94
2022-12-14T21:10:23.211Z,-4.91
2022-12-14T21:13:20.050Z,-5.01
2022-12-14T21:16:16.899Z,-5.12
2022-12-14T21:19:15.853Z,-5.20
2022-12-14T21:22:20.132Z,-5.24
2022-12-14T21:25:17.076Z,-5.30
2022-12-14T21:28:13.907Z,-5.41
2022-12-14T21:31:16.107Z,-5.52
2022-12-14T21:34:21.487Z,-5.59
2022-12-14T21:37:18.898Z,-5.67
2022-12-14T21:40:35.712Z,-5.73
2022-12-14T21:43:32.964Z,-5.73
2022-12-14T21:46:30.076Z,-5.89
2022-12-14T21:49:27.071Z,-5.91
2022-12-14T21:52:27.731Z,-5.90
2022-12-14T21:55:24.555Z,-5.83
2022-12-14T21:58:24.302Z,-5.86
2022-12-14T22:01:21.216Z,-6.11
2022-12-14T22:04:18.162Z,-5.84
2022-12-14T22:07:20.904Z,-5.92
2022-12-14T22:10:21.416Z,-5.98
2022-12-14T22:13:21.550Z,-6.16
2022-12-14T22:16:18.428Z,-6.14
2022-12-14T22:19:22.049Z,-6.23
2022-12-14T22:22:18.992Z,-6.22
2022-12-14T22:25:15.927Z,-6.39
2022-12-14T22:28:12.773Z,-6.40
2022-12-14T22:31:09.607Z,-6.38
2022-12-14T22:34:08.867Z,-6.31
2022-12-14T22:37:05.985Z,-6.51
2022-12-14T22:40:04.223Z,-6.38
2022-12-14T22:43:01.064Z,-6.44
2022-12-14T22:46:03.186Z,-6.43
2022-12-14T22:49:00.636Z,-6.61
2022-12-14T22:51:57.483Z,-6.66
2022-12-14T22:54:54.516Z,-6.52
2022-12-14T22:57:51.646Z,-6.66
2022-12-14T23:00:49.677Z,-6.68
2022-12-14T23:03:47.500Z,-6.77
2022-12-14T23:06:44.923Z,-6.79
2022-12-14T23:10:00.694Z,-6.87
2022-12-14T23:13:16.069Z,-6.71
2022-12-14T23:16:32.294Z,-6.71
2022-12-14T23:19:47.693Z,-6.71
2022-12-14T23:23:03.108Z,-6.88
2022-12-14T23:26:23.079Z,-6.80
2022-12-14T23:29:38.709Z,-6.84
2022-12-14T23:32:54.382Z,-7.04
2022-12-14T23:36:09.775Z,-7.02
2022-12-14T23:39:25.648Z,-6.99
2022-12-14T23:42:41.207Z,-6.96
2022-12-14T23:45:56.949Z,-6.96
2022-12-14T23:49:15.625Z,-7.08
2022-12-14T23:52:31.545Z,-7.08
2022-12-14T23:55:47.170Z,-7.05
2022-12-14T23:59:02.794Z,-7.18
